sensor_id;sensor_type;location;lat;lon;timestamp;P1;durP1;ratioP1;P2;durP2;ratioP2
22814;SDS011;11574;51.058;13.712;2023-11-21T00:04:55;13.03;;;4.40;;
22814;SDS011;11574;51.058;13.712;2023-11-21T00:09:58;15.20;;;5.07;;
22814;SDS011;11574;51.058;13.712;2023-11-21T00:15:00;3.90;;;1.73;;
22814;SDS011;11574;51.058;13.712;2023-11-21T00:20:03;2.90;;;1.67;;
22814;SDS011;11574;51.058;13.712;2023-11-21T00:25:08;3.17;;;1.57;;
22814;SDS011;11574;51.058;13.712;2023-11-21T00:30:11;2.90;;;1.47;;
22814;SDS011;11574;51.058;13.712;2023-11-21T00:35:14;5.10;;;1.90;;
22814;SDS011;11574;51.058;13.712;2023-11-21T00:40:18;5.87;;;1.97;;
22814;SDS011;11574;51.058;13.712;2023-11-21T00:45:21;4.07;;;1.20;;
22814;SDS011;11574;51.058;13.712;2023-11-21T00:50:24;2.83;;;1.37;;
22814;SDS011;11574;51.058;13.712;2023-11-21T00:55:29;3.97;;;1.50;;
22814;SDS011;11574;51.058;13.712;2023-11-21T01:00:32;5.57;;;1.70;;
22814;SDS011;11574;51.058;13.712;2023-11-21T01:05:34;2.77;;;1.37;;
22814;SDS011;11574;51.058;13.712;2023-11-21T01:10:38;3.80;;;1.43;;
22814;SDS011;11574;51.058;13.712;2023-11-21T01:15:40;4.17;;;1.20;;
22814;SDS011;11574;51.058;13.712;2023-11-21T01:20:42;2.67;;;1.50;;
22814;SDS011;11574;51.058;13.712;2023-11-21T01:25:48;4.90;;;1.77;;
22814;SDS011;11574;51.058;13.712;2023-11-21T01:30:51;4.63;;;1.30;;
22814;SDS011;11574;51.058;13.712;2023-11-21T01:35:56;4.40;;;1.40;;
22814;SDS011;11574;51.058;13.712;2023-11-21T01:41:02;4.17;;;1.53;;
22814;SDS011;11574;51.058;13.712;2023-11-21T01:46:04;1.93;;;1.07;;
22814;SDS011;11574;51.058;13.712;2023-11-21T01:51:07;4.03;;;1.20;;
22814;SDS011;11574;51.058;13.712;2023-11-21T01:56:10;3.40;;;1.27;;
22814;SDS011;11574;51.058;13.712;2023-11-21T02:01:13;3.07;;;1.40;;
22814;SDS011;11574;51.058;13.712;2023-11-21T02:06:15;4.33;;;1.83;;
22814;SDS011;11574;51.058;13.712;2023-11-21T02:11:19;2.13;;;1.13;;
22814;SDS011;11574;51.058;13.712;2023-11-21T02:16:21;4.30;;;1.30;;
22814;SDS011;11574;51.058;13.712;2023-11-21T02:21:24;4.23;;;1.50;;
22814;SDS011;11574;51.058;13.712;2023-11-21T02:26:28;4.77;;;1.40;;
22814;SDS011;11574;51.058;13.712;2023-11-21T02:31:30;4.77;;;1.53;;
22814;SDS011;11574;51.058;13.712;2023-11-21T02:36:33;4.00;;;1.40;;
22814;SDS011;11574;51.058;13.712;2023-11-21T02:41:37;3.93;;;1.50;;
22814;SDS011;11574;51.058;13.712;2023-11-21T02:46:40;7.10;;;2.00;;
22814;SDS011;11574;51.058;13.712;2023-11-21T02:51:43;3.63;;;1.60;;
22814;SDS011;11574;51.058;13.712;2023-11-21T02:56:46;4.33;;;1.33;;
22814;SDS011;11574;51.058;13.712;2023-11-21T03:01:49;2.13;;;1.23;;
22814;SDS011;11574;51.058;13.712;2023-11-21T03:06:52;5.63;;;1.67;;
22814;SDS011;11574;51.058;13.712;2023-11-21T03:11:55;4.13;;;1.67;;
22814;SDS011;11574;51.058;13.712;2023-11-21T03:16:58;9.30;;;1.57;;
22814;SDS011;11574;51.058;13.712;2023-11-21T03:22:00;4.30;;;1.73;;
22814;SDS011;11574;51.058;13.712;2023-11-21T03:27:05;7.63;;;1.70;;
22814;SDS011;11574;51.058;13.712;2023-11-21T03:32:08;6.90;;;2.03;;
22814;SDS011;11574;51.058;13.712;2023-11-21T03:37:10;4.90;;;1.60;;
22814;SDS011;11574;51.058;13.712;2023-11-21T03:42:15;4.20;;;1.80;;
22814;SDS011;11574;51.058;13.712;2023-11-21T03:47:17;5.97;;;1.50;;
22814;SDS011;11574;51.058;13.712;2023-11-21T03:52:20;3.77;;;1.50;;
22814;SDS011;11574;51.058;13.712;2023-11-21T03:57:24;7.20;;;1.43;;
22814;SDS011;11574;51.058;13.712;2023-11-21T04:02:27;6.37;;;1.80;;
22814;SDS011;11574;51.058;13.712;2023-11-21T04:07:31;4.10;;;1.60;;
22814;SDS011;11574;51.058;13.712;2023-11-21T04:12:37;2.73;;;1.30;;
22814;SDS011;11574;51.058;13.712;2023-11-21T04:17:41;4.60;;;1.20;;
22814;SDS011;11574;51.058;13.712;2023-11-21T04:22:45;7.77;;;1.60;;
22814;SDS011;11574;51.058;13.712;2023-11-21T04:27:50;4.57;;;1.60;;
22814;SDS011;11574;51.058;13.712;2023-11-21T04:32:52;8.20;;;2.10;;
22814;SDS011;11574;51.058;13.712;2023-11-21T04:37:55;10.60;;;2.33;;
22814;SDS011;11574;51.058;13.712;2023-11-21T04:43:00;6.97;;;1.90;;
22814;SDS011;11574;51.058;13.712;2023-11-21T04:48:04;14.93;;;2.40;;
22814;SDS011;11574;51.058;13.712;2023-11-21T04:53:06;5.70;;;2.07;;
22814;SDS011;11574;51.058;13.712;2023-11-21T04:58:10;7.60;;;2.27;;
22814;SDS011;11574;51.058;13.712;2023-11-21T05:03:20;7.20;;;2.27;;
22814;SDS011;11574;51.058;13.712;2023-11-21T05:08:34;9.27;;;2.50;;
22814;SDS011;11574;51.058;13.712;2023-11-21T05:13:38;3.63;;;2.20;;
22814;SDS011;11574;51.058;13.712;2023-11-21T05:18:40;8.20;;;2.57;;
22814;SDS011;11574;51.058;13.712;2023-11-21T05:23:43;8.90;;;2.67;;
22814;SDS011;11574;51.058;13.712;2023-11-21T05:28:46;8.57;;;3.13;;
22814;SDS011;11574;51.058;13.712;2023-11-21T05:33:49;12.23;;;2.30;;
22814;SDS011;11574;51.058;13.712;2023-11-21T05:38:51;10.13;;;2.70;;
22814;SDS011;11574;51.058;13.712;2023-11-21T05:44:06;10.33;;;3.20;;
22814;SDS011;11574;51.058;13.712;2023-11-21T05:49:17;7.40;;;3.20;;
22814;SDS011;11574;51.058;13.712;2023-11-21T05:54:21;10.03;;;3.07;;
22814;SDS011;11574;51.058;13.712;2023-11-21T05:59:25;15.67;;;3.10;;
22814;SDS011;11574;51.058;13.712;2023-11-21T06:04:29;8.63;;;2.90;;
22814;SDS011;11574;51.058;13.712;2023-11-21T06:09:32;6.03;;;2.50;;
22814;SDS011;11574;51.058;13.712;2023-11-21T06:14:36;11.37;;;3.03;;
22814;SDS011;11574;51.058;13.712;2023-11-21T06:19:38;4.33;;;2.57;;
22814;SDS011;11574;51.058;13.712;2023-11-21T06:24:41;7.53;;;2.80;;
22814;SDS011;11574;51.058;13.712;2023-11-21T06:29:49;11.53;;;3.47;;
22814;SDS011;11574;51.058;13.712;2023-11-21T06:34:53;14.50;;;3.57;;
22814;SDS011;11574;51.058;13.712;2023-11-21T06:39:56;7.73;;;2.90;;
22814;SDS011;11574;51.058;13.712;2023-11-21T06:45:08;6.70;;;3.40;;
22814;SDS011;11574;51.058;13.712;2023-11-21T06:50:20;7.80;;;3.17;;
22814;SDS011;11574;51.058;13.712;2023-11-21T06:55:22;13.33;;;3.80;;
22814;SDS011;11574;51.058;13.712;2023-11-21T07:00:33;13.73;;;3.90;;
22814;SDS011;11574;51.058;13.712;2023-11-21T07:05:35;12.30;;;3.87;;
22814;SDS011;11574;51.058;13.712;2023-11-21T07:10:38;13.43;;;4.03;;
22814;SDS011;11574;51.058;13.712;2023-11-21T07:15:41;18.80;;;5.30;;
22814;SDS011;11574;51.058;13.712;2023-11-21T07:20:44;13.97;;;3.80;;
22814;SDS011;11574;51.058;13.712;2023-11-21T07:25:46;18.50;;;4.63;;
22814;SDS011;11574;51.058;13.712;2023-11-21T07:30:50;20.53;;;5.37;;
22814;SDS011;11574;51.058;13.712;2023-11-21T07:35:52;15.70;;;4.30;;
22814;SDS011;11574;51.058;13.712;2023-11-21T07:40:54;7.63;;;4.03;;
22814;SDS011;11574;51.058;13.712;2023-11-21T07:45:58;10.77;;;4.20;;
22814;SDS011;11574;51.058;13.712;2023-11-21T07:51:01;17.47;;;4.63;;
22814;SDS011;11574;51.058;13.712;2023-11-21T07:56:05;27.47;;;5.10;;
22814;SDS011;11574;51.058;13.712;2023-11-21T08:01:10;15.10;;;4.93;;
22814;SDS011;11574;51.058;13.712;2023-11-21T08:06:12;15.40;;;4.97;;
22814;SDS011;11574;51.058;13.712;2023-11-21T08:11:15;18.77;;;5.23;;
22814;SDS011;11574;51.058;13.712;2023-11-21T08:16:19;16.87;;;5.20;;
22814;SDS011;11574;51.058;13.712;2023-11-21T08:21:21;14.13;;;5.50;;
22814;SDS011;11574;51.058;13.712;2023-11-21T08:26:25;17.33;;;6.40;;
22814;SDS011;11574;51.058;13.712;2023-11-21T08:31:29;16.87;;;7.43;;
22814;SDS011;11574;51.058;13.712;2023-11-21T08:36:34;14.03;;;5.97;;
22814;SDS011;11574;51.058;13.712;2023-11-21T08:41:38;13.57;;;5.13;;
22814;SDS011;11574;51.058;13.712;2023-11-21T08:46:42;26.23;;;6.57;;
22814;SDS011;11574;51.058;13.712;2023-11-21T08:51:45;22.63;;;6.43;;
22814;SDS011;11574;51.058;13.712;2023-11-21T08:56:47;22.77;;;6.43;;
22814;SDS011;11574;51.058;13.712;2023-11-21T09:01:53;20.23;;;5.57;;
22814;SDS011;11574;51.058;13.712;2023-11-21T09:06:55;11.80;;;5.20;;
22814;SDS011;11574;51.058;13.712;2023-11-21T09:12:00;15.87;;;4.93;;
22814;SDS011;11574;51.058;13.712;2023-11-21T09:17:04;12.33;;;5.13;;
22814;SDS011;11574;51.058;13.712;2023-11-21T09:22:12;15.40;;;6.30;;
22814;SDS011;11574;51.058;13.712;2023-11-21T09:27:16;11.13;;;6.23;;
22814;SDS011;11574;51.058;13.712;2023-11-21T09:32:21;10.33;;;4.83;;
22814;SDS011;11574;51.058;13.712;2023-11-21T09:37:23;12.67;;;4.73;;
22814;SDS011;11574;51.058;13.712;2023-11-21T09:42:30;11.37;;;4.87;;
22814;SDS011;11574;51.058;13.712;2023-11-21T09:47:35;3.63;;;2.60;;
22814;SDS011;11574;51.058;13.712;2023-11-21T09:52:39;7.40;;;2.23;;
22814;SDS011;11574;51.058;13.712;2023-11-21T09:57:49;2.67;;;1.60;;
22814;SDS011;11574;51.058;13.712;2023-11-21T10:02:56;3.97;;;2.70;;
22814;SDS011;11574;51.058;13.712;2023-11-21T10:08:04;6.00;;;3.67;;
22814;SDS011;11574;51.058;13.712;2023-11-21T10:13:08;7.47;;;4.13;;
22814;SDS011;11574;51.058;13.712;2023-11-21T10:18:14;12.40;;;5.43;;
22814;SDS011;11574;51.058;13.712;2023-11-21T10:23:17;13.83;;;5.43;;
22814;SDS011;11574;51.058;13.712;2023-11-21T10:28:22;12.50;;;5.63;;
22814;SDS011;11574;51.058;13.712;2023-11-21T10:33:29;7.70;;;5.37;;
22814;SDS011;11574;51.058;13.712;2023-11-21T10:38:33;8.70;;;5.57;;
22814;SDS011;11574;51.058;13.712;2023-11-21T10:43:38;12.43;;;5.90;;
22814;SDS011;11574;51.058;13.712;2023-11-21T10:48:42;10.43;;;5.37;;
22814;SDS011;11574;51.058;13.712;2023-11-21T10:53:53;13.23;;;6.27;;
22814;SDS011;11574;51.058;13.712;2023-11-21T10:58:56;11.23;;;5.67;;
22814;SDS011;11574;51.058;13.712;2023-11-21T11:04:02;11.50;;;5.47;;
22814;SDS011;11574;51.058;13.712;2023-11-21T11:09:16;10.07;;;4.93;;
22814;SDS011;11574;51.058;13.712;2023-11-21T11:14:18;7.33;;;4.10;;
22814;SDS011;11574;51.058;13.712;2023-11-21T12:49:51;22.43;;;7.17;;
22814;SDS011;11574;51.058;13.712;2023-11-21T12:54:56;16.90;;;7.50;;
22814;SDS011;11574;51.058;13.712;2023-11-21T14:30:20;11.80;;;6.30;;
22814;SDS011;11574;51.058;13.712;2023-11-21T14:35:24;12.00;;;5.53;;
22814;SDS011;11574;51.058;13.712;2023-11-21T14:40:26;11.77;;;5.77;;
22814;SDS011;11574;51.058;13.712;2023-11-21T14:45:34;10.73;;;5.17;;
22814;SDS011;11574;51.058;13.712;2023-11-21T14:50:39;9.27;;;4.67;;
22814;SDS011;11574;51.058;13.712;2023-11-21T14:56:16;14.73;;;5.50;;
22814;SDS011;11574;51.058;13.712;2023-11-21T15:01:30;9.33;;;4.97;;
22814;SDS011;11574;51.058;13.712;2023-11-21T15:06:44;11.53;;;5.07;;
22814;SDS011;11574;51.058;13.712;2023-11-21T15:11:48;9.17;;;4.47;;
22814;SDS011;11574;51.058;13.712;2023-11-21T15:16:56;11.43;;;5.70;;
22814;SDS011;11574;51.058;13.712;2023-11-21T15:22:00;10.10;;;5.80;;
22814;SDS011;11574;51.058;13.712;2023-11-21T15:27:08;9.27;;;5.23;;
22814;SDS011;11574;51.058;13.712;2023-11-21T15:32:20;7.23;;;4.60;;
22814;SDS011;11574;51.058;13.712;2023-11-21T15:37:29;8.43;;;4.97;;
22814;SDS011;11574;51.058;13.712;2023-11-21T15:42:33;6.43;;;4.23;;
22814;SDS011;11574;51.058;13.712;2023-11-21T15:47:38;13.07;;;5.90;;
22814;SDS011;11574;51.058;13.712;2023-11-21T15:52:41;9.57;;;5.40;;
22814;SDS011;11574;51.058;13.712;2023-11-21T15:57:44;9.07;;;5.17;;
22814;SDS011;11574;51.058;13.712;2023-11-21T16:03:05;6.30;;;3.63;;
22814;SDS011;11574;51.058;13.712;2023-11-21T16:08:09;6.97;;;4.50;;
22814;SDS011;11574;51.058;13.712;2023-11-21T16:13:12;7.20;;;4.20;;
22814;SDS011;11574;51.058;13.712;2023-11-21T16:18:15;5.63;;;3.10;;
22814;SDS011;11574;51.058;13.712;2023-11-21T16:23:19;7.70;;;4.17;;
22814;SDS011;11574;51.058;13.712;2023-11-21T16:28:21;8.30;;;4.17;;
22814;SDS011;11574;51.058;13.712;2023-11-21T16:33:26;6.53;;;3.47;;
22814;SDS011;11574;51.058;13.712;2023-11-21T16:38:28;3.40;;;2.40;;
22814;SDS011;11574;51.058;13.712;2023-11-21T16:43:44;5.93;;;2.63;;
22814;SDS011;11574;51.058;13.712;2023-11-21T16:48:48;4.57;;;2.53;;
22814;SDS011;11574;51.058;13.712;2023-11-21T16:53:50;4.93;;;2.20;;
22814;SDS011;11574;51.058;13.712;2023-11-21T16:58:55;3.23;;;2.20;;
22814;SDS011;11574;51.058;13.712;2023-11-21T17:03:59;3.83;;;1.93;;
22814;SDS011;11574;51.058;13.712;2023-11-21T17:09:02;3.13;;;1.63;;
22814;SDS011;11574;51.058;13.712;2023-11-21T17:14:09;2.47;;;1.40;;
22814;SDS011;11574;51.058;13.712;2023-11-21T17:19:13;2.47;;;1.30;;
22814;SDS011;11574;51.058;13.712;2023-11-21T17:24:15;5.00;;;1.57;;
22814;SDS011;11574;51.058;13.712;2023-11-21T17:29:21;1.67;;;1.30;;
22814;SDS011;11574;51.058;13.712;2023-11-21T17:34:26;2.83;;;1.43;;
22814;SDS011;11574;51.058;13.712;2023-11-21T17:39:28;2.30;;;1.40;;
22814;SDS011;11574;51.058;13.712;2023-11-21T17:44:33;2.80;;;1.47;;
22814;SDS011;11574;51.058;13.712;2023-11-21T17:49:37;3.03;;;1.60;;
22814;SDS011;11574;51.058;13.712;2023-11-21T17:54:42;2.30;;;1.60;;
22814;SDS011;11574;51.058;13.712;2023-11-21T17:59:47;3.93;;;2.27;;
22814;SDS011;11574;51.058;13.712;2023-11-21T18:04:53;3.43;;;1.97;;
22814;SDS011;11574;51.058;13.712;2023-11-21T18:09:55;3.10;;;2.00;;
22814;SDS011;11574;51.058;13.712;2023-11-21T18:14:57;9.37;;;2.60;;
22814;SDS011;11574;51.058;13.712;2023-11-21T18:20:01;4.10;;;2.17;;
22814;SDS011;11574;51.058;13.712;2023-11-21T18:25:06;3.60;;;1.60;;
22814;SDS011;11574;51.058;13.712;2023-11-21T18:30:10;2.63;;;1.67;;
22814;SDS011;11574;51.058;13.712;2023-11-21T18:35:15;1.67;;;1.10;;
22814;SDS011;11574;51.058;13.712;2023-11-21T18:40:17;2.43;;;1.20;;
22814;SDS011;11574;51.058;13.712;2023-11-21T18:45:21;2.03;;;1.83;;
22814;SDS011;11574;51.058;13.712;2023-11-21T18:50:26;2.00;;;1.47;;
22814;SDS011;11574;51.058;13.712;2023-11-21T20:25:51;3.70;;;2.30;;
22814;SDS011;11574;51.058;13.712;2023-11-21T20:30:57;4.90;;;2.60;;
22814;SDS011;11574;51.058;13.712;2023-11-21T20:36:00;4.27;;;2.60;;
22814;SDS011;11574;51.058;13.712;2023-11-21T20:41:06;4.07;;;2.20;;
22814;SDS011;11574;51.058;13.712;2023-11-21T20:46:11;3.60;;;2.27;;
22814;SDS011;11574;51.058;13.712;2023-11-21T22:21:35;5.70;;;4.00;;
22814;SDS011;11574;51.058;13.712;2023-11-21T22:26:38;5.63;;;4.03;;
22814;SDS011;11574;51.058;13.712;2023-11-21T22:31:41;10.20;;;5.57;;
22814;SDS011;11574;51.058;13.712;2023-11-21T22:36:44;8.10;;;5.80;;
22814;SDS011;11574;51.058;13.712;2023-11-21T22:41:46;10.57;;;6.23;;
22814;SDS011;11574;51.058;13.712;2023-11-21T22:46:50;8.40;;;5.57;;
22814;SDS011;11574;51.058;13.712;2023-11-21T22:51:54;9.77;;;6.20;;
22814;SDS011;11574;51.058;13.712;2023-11-21T22:56:56;8.80;;;6.20;;
22814;SDS011;11574;51.058;13.712;2023-11-21T23:01:59;10.23;;;6.37;;
